Time;durP1;ratioP1;P1;durP2;ratioP2;P2;SDS_P1;SDS_P2;PMS_P1;PMS_P2;Temp;Humidity;BMP_temperature;BMP_pressure;BME280_temperature;BME280_humidity;BME280_pressure;Samples;Min_cycle;Max_cycle;Signal;HPM_P1;HPM_P2
2023/11/29 00:00:16;;;;;;;;;;;15.50;58.70;;;;;;5111473;28;19908;-35
2023/11/29 00:02:41;;;;;;;;;;;15.50;58.70;;;;;;5105386;28;19923;-35
2023/11/29 00:05:08;;;;;;;;;;;15.60;59.00;;;;;;5106076;28;19911;-36
2023/11/29 00:07:34;;;;;;;;;;;15.70;59.20;;;;;;5105954;28;19912;-35
2023/11/29 00:10:00;;;;;;;;;;;15.70;59.20;;;;;;5106628;28;19943;-35
2023/11/29 00:12:26;;;;;;;;;;;15.60;59.10;;;;;;5105113;28;19934;-35
2023/11/29 00:14:52;;;;;;;;;;;15.60;58.90;;;;;;5102208;28;19951;-35
2023/11/29 00:17:18;;;;;;;;;;;15.60;58.80;;;;;;5102847;28;19958;-35
2023/11/29 00:19:44;;;;;;;;;;;15.50;58.80;;;;;;5106190;28;19915;-38
2023/11/29 00:22:10;;;;;;;;;;;15.50;58.80;;;;;;5106713;28;19915;-34
2023/11/29 00:24:36;;;;;;;;;;;15.50;58.90;;;;;;5105247;28;19919;-34
2023/11/29 00:27:04;;;;;;;;;;;15.60;59.20;;;;;;5106111;28;19912;-34
2023/11/29 00:29:30;;;;;;;;;;;15.70;59.30;;;;;;5112121;28;19953;-35
2023/11/29 00:31:56;;;;;;;;;;;15.60;59.10;;;;;;5106270;28;19915;-35
2023/11/29 00:34:22;;;;;;;;;;;15.60;59.00;;;;;;5105736;28;19911;-35
2023/11/29 00:36:49;;;;;;;;;;;15.50;58.90;;;;;;5102139;28;19919;-35
2023/11/29 00:39:15;;;;;;;;;;;15.50;59.40;;;;;;5105550;28;19912;-35
2023/11/29 00:41:42;;;;;;;;;;;15.50;58.90;;;;;;5105512;28;20376;-35
2023/11/29 00:44:08;;;;;;;;;;;15.40;58.90;;;;;;5104600;28;19916;-35
2023/11/29 00:46:34;;;;;;;;;;;15.50;59.00;;;;;;5104859;28;20012;-35
2023/11/29 00:49:00;;;;;;;;;;;15.60;59.20;;;;;;5105454;28;19920;-35
2023/11/29 00:51:26;;;;;;;;;;;15.60;59.30;;;;;;5105221;28;19915;-35
2023/11/29 00:53:52;;;;;;;;;;;15.60;59.20;;;;;;5085230;28;19979;-35
2023/11/29 00:56:18;;;;;;;;;;;15.50;59.10;;;;;;5101940;28;19919;-34
2023/11/29 00:58:44;;;;;;;;;;;15.50;59.10;;;;;;5104887;28;19908;-35
2023/11/29 01:01:10;;;;;;;;;;;15.40;59.00;;;;;;5104755;28;19911;-35
2023/11/29 01:03:35;;;;;;;;;;;15.50;59.10;;;;;;5103558;28;19929;-34
2023/11/29 01:06:01;;;;;;;;;;;15.60;59.20;;;;;;5100184;28;19912;-34
2023/11/29 01:08:27;;;;;;;;;;;15.60;59.30;;;;;;5103617;28;19948;-34
2023/11/29 01:10:53;;;;;;;;;;;15.60;59.20;;;;;;5105483;28;20406;-34
2023/11/29 01:13:19;;;;;;;;;;;15.60;59.20;;;;;;5098997;28;19908;-34
2023/11/29 01:15:48;;;;;;;;;;;15.50;59.20;;;;;;5097648;28;19912;-35
2023/11/29 01:18:14;;;;;;;;;;;15.50;59.20;;;;;;5104362;28;19923;-35
2023/11/29 01:20:40;;;;;;;;;;;15.40;59.10;;;;;;5105051;28;19918;-35
2023/11/29 01:23:06;;;;;;;;;;;15.40;59.10;;;;;;5105115;28;20380;-34
2023/11/29 01:25:32;;;;;;;;;;;15.40;59.20;;;;;;5098570;28;19935;-34
2023/11/29 01:27:58;;;;;;;;;;;15.50;59.30;;;;;;5104902;28;19936;-34
2023/11/29 01:30:24;;;;;;;;;;;15.60;59.50;;;;;;5110831;28;19947;-34
2023/11/29 01:32:50;;;;;;;;;;;15.50;59.30;;;;;;5107178;28;19915;-34
2023/11/29 01:35:18;;;;;;;;;;;15.50;59.20;;;;;;5099119;28;19947;-35
2023/11/29 01:37:43;;;;;;;;;;;15.50;59.20;;;;;;5101195;28;19916;-34
2023/11/29 01:40:10;;;;;;;;;;;15.40;59.20;;;;;;5104116;28;19934;-35
2023/11/29 01:42:36;;;;;;;;;;;15.40;59.20;;;;;;5102577;28;19908;-34
2023/11/29 01:45:03;;;;;;;;;;;15.30;59.20;;;;;;5105585;28;19915;-35
2023/11/29 01:47:33;;;;;;;;;;;15.50;59.40;;;;;;5103292;28;20460;-37
2023/11/29 01:50:03;;;;;;;;;;;15.50;59.50;;;;;;5119210;28;19967;-35
2023/11/29 01:52:32;;;;;;;;;;;15.50;59.40;;;;;;5103692;28;19961;-36
2023/11/29 01:54:59;;;;;;;;;;;15.50;59.30;;;;;;5103318;28;19908;-34
2023/11/29 01:57:25;;;;;;;;;;;15.40;59.30;;;;;;5103285;28;19973;-34
2023/11/29 01:59:52;;;;;;;;;;;15.40;59.30;;;;;;5104199;28;19916;-34
2023/11/29 02:02:18;;;;;;;;;;;15.30;59.30;;;;;;5102905;28;19912;-34
2023/11/29 02:04:45;;;;;;;;;;;15.40;59.30;;;;;;5103542;28;20387;-35
2023/11/29 02:07:12;;;;;;;;;;;15.50;60.00;;;;;;5103030;28;19919;-35
2023/11/29 02:09:39;;;;;;;;;;;15.50;59.40;;;;;;5103595;28;19915;-35
2023/11/29 02:12:05;;;;;;;;;;;15.40;59.40;;;;;;5104366;28;19912;-35
2023/11/29 02:14:37;;;;;;;;;;;15.40;59.30;;;;;;5070381;28;19976;-34
2023/11/29 02:17:03;;;;;;;;;;;15.30;59.20;;;;;;5098109;28;19955;-34
2023/11/29 02:19:30;;;;;;;;;;;15.30;59.30;;;;;;5101374;28;19908;-34
2023/11/29 02:21:57;;;;;;;;;;;15.40;59.30;;;;;;5103743;28;19908;-34
2023/11/29 02:24:24;;;;;;;;;;;15.50;59.40;;;;;;5100878;28;19915;-35
2023/11/29 02:26:57;;;;;;;;;;;15.50;59.50;;;;;;5085169;28;19912;-34
2023/11/29 02:29:25;;;;;;;;;;;15.50;59.30;;;;;;5101923;28;20265;-34
2023/11/29 02:31:51;;;;;;;;;;;15.40;59.30;;;;;;5108537;28;19915;-34
2023/11/29 02:34:18;;;;;;;;;;;15.40;59.30;;;;;;5103488;28;19941;-35
2023/11/29 02:36:44;;;;;;;;;;;15.30;59.30;;;;;;5102916;28;19934;-35
2023/11/29 02:39:11;;;;;;;;;;;15.30;59.40;;;;;;5104073;28;20372;-35
2023/11/29 02:41:40;;;;;;;;;;;15.40;59.40;;;;;;5103290;28;19912;-35
2023/11/29 02:44:12;;;;;;;;;;;15.50;59.50;;;;;;5102854;28;19920;-34
2023/11/29 02:46:39;;;;;;;;;;;15.50;59.60;;;;;;5094105;28;19907;-35
2023/11/29 02:49:06;;;;;;;;;;;15.40;59.40;;;;;;5098306;28;19908;-35
2023/11/29 02:51:32;;;;;;;;;;;15.40;59.30;;;;;;5102819;28;19919;-34
2023/11/29 02:53:59;;;;;;;;;;;15.30;59.40;;;;;;5105992;28;19908;-34
2023/11/29 02:56:25;;;;;;;;;;;15.30;59.40;;;;;;5106504;28;19918;-35
2023/11/29 02:58:51;;;;;;;;;;;15.40;59.60;;;;;;5104503;28;19981;-35
2023/11/29 03:01:18;;;;;;;;;;;15.50;59.60;;;;;;5104611;28;19974;-34
2023/11/29 03:03:45;;;;;;;;;;;15.50;59.60;;;;;;5107636;28;19908;-34
2023/11/29 03:06:11;;;;;;;;;;;15.40;59.50;;;;;;5102579;28;19918;-34
2023/11/29 03:08:38;;;;;;;;;;;15.40;59.40;;;;;;5106875;28;19912;-34
2023/11/29 03:11:04;;;;;;;;;;;15.30;59.40;;;;;;5107767;28;20286;-34
2023/11/29 03:13:31;;;;;;;;;;;15.30;59.50;;;;;;5106421;28;19951;-35
2023/11/29 03:16:02;;;;;;;;;;;15.30;59.50;;;;;;5106983;28;20365;-35
2023/11/29 03:18:32;;;;;;;;;;;15.40;59.60;;;;;;5105347;28;19916;-35
2023/11/29 03:20:58;;;;;;;;;;;15.50;59.70;;;;;;5107763;28;19958;-35
2023/11/29 03:23:25;;;;;;;;;;;15.40;59.50;;;;;;5106730;28;19912;-34
2023/11/29 03:25:51;;;;;;;;;;;15.40;59.40;;;;;;5107417;28;19916;-35
2023/11/29 03:28:17;;;;;;;;;;;15.30;59.50;;;;;;5107856;28;19962;-34
2023/11/29 03:30:43;;;;;;;;;;;15.30;59.60;;;;;;5106563;28;19915;-34
2023/11/29 03:33:09;;;;;;;;;;;15.30;59.50;;;;;;5107067;28;19940;-34
2023/11/29 03:35:36;;;;;;;;;;;15.30;59.50;;;;;;5102011;28;19913;-34
2023/11/29 03:38:02;;;;;;;;;;;15.40;59.60;;;;;;5105721;28;19920;-34
2023/11/29 03:40:28;;;;;;;;;;;15.40;59.60;;;;;;5106912;28;20376;-35
2023/11/29 03:42:54;;;;;;;;;;;15.40;59.40;;;;;;5106817;28;19912;-35
2023/11/29 03:45:20;;;;;;;;;;;15.30;59.40;;;;;;5106579;28;19915;-35
2023/11/29 03:47:47;;;;;;;;;;;15.30;59.50;;;;;;5099364;28;19912;-34
2023/11/29 03:50:13;;;;;;;;;;;15.20;59.50;;;;;;5106559;28;19908;-35
2023/11/29 03:52:40;;;;;;;;;;;15.30;59.60;;;;;;5106643;28;19933;-35
2023/11/29 03:55:06;;;;;;;;;;;15.40;59.60;;;;;;5075381;28;19908;-35
2023/11/29 03:57:34;;;;;;;;;;;15.40;59.60;;;;;;5105079;28;19986;-34
2023/11/29 04:00:00;;;;;;;;;;;15.40;59.50;;;;;;5105802;28;19979;-35
2023/11/29 04:02:26;;;;;;;;;;;15.30;59.50;;;;;;5105935;28;19908;-34
2023/11/29 04:04:51;;;;;;;;;;;15.30;59.50;;;;;;5105791;28;19911;-34
2023/11/29 04:07:17;;;;;;;;;;;15.20;59.50;;;;;;5106263;28;19912;-34
2023/11/29 04:09:43;;;;;;;;;;;15.20;59.60;;;;;;5106761;28;19930;-34
2023/11/29 04:12:09;;;;;;;;;;;15.30;59.60;;;;;;5106030;28;20430;-35
2023/11/29 04:14:35;;;;;;;;;;;15.40;59.60;;;;;;5105820;28;20011;-34
2023/11/29 04:17:01;;;;;;;;;;;15.40;59.60;;;;;;5106372;28;20381;-34
2023/11/29 04:19:27;;;;;;;;;;;15.30;59.50;;;;;;5105152;28;19912;-34
2023/11/29 04:21:53;;;;;;;;;;;15.30;59.60;;;;;;5106241;28;19914;-33
2023/11/29 04:24:19;;;;;;;;;;;15.20;59.50;;;;;;5105723;28;19912;-34
2023/11/29 04:26:44;;;;;;;;;;;15.20;59.60;;;;;;5108620;28;19908;-34
2023/11/29 04:29:10;;;;;;;;;;;15.20;59.50;;;;;;5100209;28;20621;-34
2023/11/29 04:31:36;;;;;;;;;;;15.40;59.60;;;;;;5098026;28;20780;-34
2023/11/29 04:34:02;;;;;;;;;;;15.40;59.60;;;;;;5105334;28;20002;-34
2023/11/29 04:36:28;;;;;;;;;;;15.40;59.40;;;;;;5099187;28;20367;-34
2023/11/29 04:38:54;;;;;;;;;;;15.40;59.50;;;;;;5099812;28;20006;-34
2023/11/29 04:41:23;;;;;;;;;;;15.30;59.40;;;;;;5105242;28;19908;-34
2023/11/29 04:43:49;;;;;;;;;;;15.20;59.50;;;;;;5097895;28;19921;-34
2023/11/29 04:46:15;;;;;;;;;;;15.20;59.50;;;;;;5102499;28;19908;-34
2023/11/29 04:48:44;;;;;;;;;;;15.20;59.50;;;;;;5105503;28;19915;-34
2023/11/29 04:51:10;;;;;;;;;;;15.40;59.60;;;;;;5105497;28;19908;-34
2023/11/29 04:53:37;;;;;;;;;;;15.40;59.60;;;;;;5105045;28;19912;-35
2023/11/29 04:56:03;;;;;;;;;;;15.40;59.50;;;;;;5105561;28;19908;-34
2023/11/29 04:58:28;;;;;;;;;;;15.40;59.50;;;;;;5098031;28;19922;-34
2023/11/29 05:00:54;;;;;;;;;;;15.30;59.50;;;;;;5099097;28;19998;-35
2023/11/29 05:03:20;;;;;;;;;;;15.20;59.50;;;;;;5104257;28;20046;-34
2023/11/29 05:05:46;;;;;;;;;;;15.20;59.60;;;;;;5092103;28;19908;-34
2023/11/29 05:08:12;;;;;;;;;;;15.20;59.60;;;;;;5105381;28;19916;-34
2023/11/29 05:10:38;;;;;;;;;;;15.30;59.60;;;;;;5098128;28;20246;-35
2023/11/29 05:13:05;;;;;;;;;;;15.40;59.70;;;;;;5099048;28;19963;-34
2023/11/29 05:15:31;;;;;;;;;;;15.30;59.40;;;;;;5104226;28;19923;-35
2023/11/29 05:17:57;;;;;;;;;;;15.30;59.50;;;;;;5105079;28;19920;-34
2023/11/29 05:20:23;;;;;;;;;;;15.20;59.50;;;;;;5097151;28;19914;-34
2023/11/29 05:22:49;;;;;;;;;;;15.20;59.50;;;;;;5101389;28;19935;-35
2023/11/29 05:25:15;;;;;;;;;;;15.10;59.50;;;;;;5094886;28;19953;-34
2023/11/29 05:27:41;;;;;;;;;;;15.30;59.60;;;;;;5100077;28;20761;-34
2023/11/29 05:30:08;;;;;;;;;;;15.40;59.60;;;;;;5105254;28;20261;-35
2023/11/29 05:32:34;;;;;;;;;;;15.30;59.40;;;;;;5101904;28;19922;-35
2023/11/29 05:34:59;;;;;;;;;;;15.30;59.40;;;;;;5098996;28;19975;-34
2023/11/29 05:37:26;;;;;;;;;;;15.20;59.50;;;;;;5096961;28;19916;-34
2023/11/29 05:39:52;;;;;;;;;;;15.20;59.50;;;;;;5105038;28;19970;-35
2023/11/29 05:42:18;;;;;;;;;;;15.10;59.40;;;;;;5105806;28;20011;-34
2023/11/29 05:44:44;;;;;;;;;;;15.30;59.40;;;;;;5104588;28;19951;-34
2023/11/29 05:47:10;;;;;;;;;;;15.40;59.50;;;;;;5096578;28;19915;-35
2023/11/29 05:49:35;;;;;;;;;;;15.40;59.50;;;;;;5103938;28;19912;-36
2023/11/29 05:52:01;;;;;;;;;;;15.30;59.30;;;;;;5104257;28;19922;-34
2023/11/29 05:54:27;;;;;;;;;;;15.30;59.40;;;;;;5103604;28;19915;-34
2023/11/29 05:56:53;;;;;;;;;;;15.20;59.40;;;;;;5104480;28;19916;-34
2023/11/29 05:59:19;;;;;;;;;;;15.10;59.40;;;;;;5102605;28;19908;-34
2023/11/29 06:01:45;;;;;;;;;;;15.20;59.50;;;;;;5100575;28;19919;-34
2023/11/29 06:04:11;;;;;;;;;;;15.30;59.50;;;;;;5100551;28;19911;-34
2023/11/29 06:06:37;;;;;;;;;;;15.40;59.50;;;;;;5098447;28;19912;-34
2023/11/29 06:09:08;;;;;;;;;;;15.40;59.40;;;;;;5104426;28;19913;-34
2023/11/29 06:11:34;;;;;;;;;;;15.30;59.40;;;;;;5103243;28;20048;-34
2023/11/29 06:14:00;;;;;;;;;;;15.30;59.40;;;;;;5104050;28;19975;-34
2023/11/29 06:16:26;;;;;;;;;;;15.20;59.50;;;;;;5103471;28;19908;-33
2023/11/29 06:18:51;;;;;;;;;;;15.20;59.50;;;;;;5103951;28;19976;-34
2023/11/29 06:21:17;;;;;;;;;;;15.10;59.50;;;;;;5104180;28;19978;-34
2023/11/29 06:23:44;;;;;;;;;;;15.20;59.60;;;;;;5104043;28;19912;-34
2023/11/29 06:26:09;;;;;;;;;;;15.40;59.60;;;;;;5110418;28;19935;-34
2023/11/29 06:28:38;;;;;;;;;;;15.40;59.50;;;;;;5095724;28;19912;-35
2023/11/29 06:31:07;;;;;;;;;;;15.30;59.40;;;;;;5103624;28;19916;-35
2023/11/29 06:33:33;;;;;;;;;;;15.30;59.40;;;;;;5103162;28;19926;-34
2023/11/29 06:36:01;;;;;;;;;;;15.20;59.50;;;;;;5080390;28;19930;-35
2023/11/29 06:38:27;;;;;;;;;;;15.20;59.50;;;;;;5103280;28;19920;-34
2023/11/29 06:40:53;;;;;;;;;;;15.20;59.50;;;;;;5103888;28;19908;-34
2023/11/29 06:43:19;;;;;;;;;;;15.30;59.60;;;;;;5103223;28;19912;-35
2023/11/29 06:45:46;;;;;;;;;;;15.40;59.60;;;;;;5104047;28;19975;-35
2023/11/29 06:48:12;;;;;;;;;;;15.40;59.40;;;;;;5103367;28;19908;-35
2023/11/29 06:50:38;;;;;;;;;;;15.30;59.50;;;;;;5103299;28;19930;-35
2023/11/29 06:53:04;;;;;;;;;;;15.30;59.60;;;;;;5118678;28;19919;-34
2023/11/29 06:55:32;;;;;;;;;;;15.20;59.60;;;;;;5102988;28;19912;-34
2023/11/29 06:57:58;;;;;;;;;;;15.10;59.60;;;;;;5095682;28;20014;-34
2023/11/29 07:00:25;;;;;;;;;;;15.20;59.60;;;;;;5103255;28;19915;-34
2023/11/29 07:02:51;;;;;;;;;;;15.30;59.60;;;;;;5103218;28;19985;-34
2023/11/29 07:05:17;;;;;;;;;;;15.40;59.60;;;;;;5101152;28;19904;-33
2023/11/29 07:07:43;;;;;;;;;;;15.30;59.40;;;;;;5103013;28;19912;-34
2023/11/29 07:10:09;;;;;;;;;;;15.30;59.50;;;;;;5096294;28;19972;-34
2023/11/29 07:12:35;;;;;;;;;;;15.20;59.50;;;;;;5102729;28;19920;-34
2023/11/29 07:15:01;;;;;;;;;;;15.20;59.60;;;;;;5103823;28;19908;-34
2023/11/29 07:17:27;;;;;;;;;;;15.20;59.60;;;;;;5102347;28;19920;-33
2023/11/29 07:19:53;;;;;;;;;;;15.30;59.50;;;;;;5103496;28;19908;-34
2023/11/29 07:22:24;;;;;;;;;;;15.40;59.60;;;;;;5102921;28;19991;-34
2023/11/29 07:24:50;;;;;;;;;;;15.30;59.40;;;;;;5096459;28;19908;-34
2023/11/29 07:27:15;;;;;;;;;;;15.30;59.50;;;;;;5100745;28;20007;-33
2023/11/29 07:29:41;;;;;;;;;;;15.20;59.50;;;;;;5064442;28;19916;-33
2023/11/29 07:32:07;;;;;;;;;;;15.10;59.50;;;;;;5107358;28;19904;-34
2023/11/29 07:34:33;;;;;;;;;;;15.20;59.60;;;;;;5093982;28;19912;-35
2023/11/29 07:37:00;;;;;;;;;;;15.30;59.60;;;;;;5097995;28;19937;-35
2023/11/29 07:39:28;;;;;;;;;;;15.40;59.60;;;;;;5102827;28;19904;-34
2023/11/29 07:41:54;;;;;;;;;;;15.30;59.50;;;;;;5106883;28;19912;-34
2023/11/29 07:44:21;;;;;;;;;;;15.30;59.50;;;;;;5106793;28;20042;-34
2023/11/29 07:46:47;;;;;;;;;;;15.20;59.50;;;;;;5099556;28;19914;-34
2023/11/29 07:49:15;;;;;;;;;;;15.10;59.50;;;;;;5107509;28;20422;-34
2023/11/29 07:51:44;;;;;;;;;;;15.10;59.50;;;;;;5106876;28;19915;-34
2023/11/29 07:54:10;;;;;;;;;;;15.20;59.60;;;;;;5106896;28;19957;-34
2023/11/29 07:56:36;;;;;;;;;;;15.30;59.60;;;;;;5106461;28;19913;-34
2023/11/29 07:59:02;;;;;;;;;;;15.40;59.60;;;;;;5106886;28;20531;-34
2023/11/29 08:01:28;;;;;;;;;;;15.30;59.50;;;;;;5106061;28;20323;-35
2023/11/29 08:03:53;;;;;;;;;;;15.30;59.50;;;;;;5106319;28;19908;-35
2023/11/29 08:06:20;;;;;;;;;;;15.20;59.50;;;;;;5106395;28;19908;-34
2023/11/29 08:08:47;;;;;;;;;;;15.10;59.60;;;;;;5106925;28;20342;-34
2023/11/29 08:11:12;;;;;;;;;;;15.10;59.60;;;;;;5099679;28;19912;-34
2023/11/29 08:13:38;;;;;;;;;;;15.20;59.60;;;;;;5105708;28;20012;-34
2023/11/29 08:16:05;;;;;;;;;;;15.30;59.60;;;;;;5074983;28;20352;-34
2023/11/29 08:18:31;;;;;;;;;;;15.40;59.50;;;;;;5104825;28;20713;-34
2023/11/29 08:20:57;;;;;;;;;;;15.30;59.40;;;;;;5106306;28;20344;-35
2023/11/29 08:23:23;;;;;;;;;;;15.20;59.40;;;;;;5105844;28;19908;-36
2023/11/29 08:25:49;;;;;;;;;;;15.20;59.50;;;;;;5107823;28;19915;-34
2023/11/29 08:28:15;;;;;;;;;;;15.10;59.50;;;;;;5080765;28;20303;-35
2023/11/29 08:30:41;;;;;;;;;;;15.10;59.60;;;;;;5098616;28;19923;-35
2023/11/29 08:33:07;;;;;;;;;;;15.20;59.60;;;;;;5111442;28;19915;-34
2023/11/29 08:35:33;;;;;;;;;;;15.30;59.60;;;;;;5100330;28;19923;-34
2023/11/29 08:37:59;;;;;;;;;;;15.30;59.60;;;;;;5106285;28;19915;-34
2023/11/29 08:40:25;;;;;;;;;;;15.30;59.50;;;;;;5105875;28;20277;-33
2023/11/29 08:42:51;;;;;;;;;;;15.20;59.50;;;;;;5102728;28;19935;-35
2023/11/29 08:45:17;;;;;;;;;;;15.10;59.60;;;;;;5105356;28;19916;-33
2023/11/29 08:47:42;;;;;;;;;;;15.10;59.60;;;;;;5105855;28;19912;-34
2023/11/29 08:50:09;;;;;;;;;;;15.10;59.60;;;;;;5105758;28;19909;-34
2023/11/29 08:52:35;;;;;;;;;;;15.20;59.60;;;;;;5105011;28;19923;-35
2023/11/29 08:55:04;;;;;;;;;;;15.30;60.20;;;;;;5105795;28;20709;-34
2023/11/29 08:57:31;;;;;;;;;;;15.30;59.50;;;;;;5105299;28;19920;-33
2023/11/29 08:59:57;;;;;;;;;;;15.30;59.40;;;;;;5105697;28;19925;-34
2023/11/29 09:02:23;;;;;;;;;;;15.20;59.50;;;;;;5104561;28;19971;-34
2023/11/29 09:04:49;;;;;;;;;;;15.10;59.50;;;;;;5091552;28;19919;-34
2023/11/29 09:07:16;;;;;;;;;;;15.10;59.50;;;;;;5101760;28;19911;-34
2023/11/29 09:09:43;;;;;;;;;;;15.10;59.60;;;;;;5105263;28;19937;-34
2023/11/29 09:12:12;;;;;;;;;;;15.20;59.60;;;;;;5087606;28;19926;-34
2023/11/29 09:14:38;;;;;;;;;;;15.30;59.60;;;;;;5104566;28;19939;-34
2023/11/29 09:17:04;;;;;;;;;;;15.30;59.40;;;;;;5099595;28;19925;-34
2023/11/29 09:19:32;;;;;;;;;;;15.20;59.30;;;;;;5095917;28;19918;-34
2023/11/29 09:21:58;;;;;;;;;;;15.10;59.40;;;;;;5105165;28;19911;-35
2023/11/29 09:24:25;;;;;;;;;;;15.10;59.40;;;;;;5104547;28;19919;-34
2023/11/29 09:26:51;;;;;;;;;;;15.10;59.50;;;;;;5105130;28;19908;-35
2023/11/29 09:29:17;;;;;;;;;;;15.30;59.50;;;;;;5105014;28;19925;-34
2023/11/29 09:31:43;;;;;;;;;;;15.30;59.30;;;;;;5104248;28;20018;-34
2023/11/29 09:34:09;;;;;;;;;;;15.30;59.30;;;;;;5104819;28;19967;-34
2023/11/29 09:36:35;;;;;;;;;;;15.20;59.20;;;;;;5098462;28;19915;-34
2023/11/29 09:39:11;;;;;;;;;;;15.10;59.30;;;;;;5107198;28;19966;-34
2023/11/29 09:41:38;;;;;;;;;;;15.10;59.40;;;;;;5104418;28;19989;-34
2023/11/29 09:44:04;;;;;;;;;;;15.20;59.40;;;;;;5101345;28;20002;-35
2023/11/29 09:46:30;;;;;;;;;;;15.30;59.50;;;;;;5070625;28;19912;-34
2023/11/29 09:48:57;;;;;;;;;;;15.30;59.40;;;;;;5097481;28;19919;-34
2023/11/29 09:51:23;;;;;;;;;;;15.20;59.20;;;;;;5103588;28;19908;-35
2023/11/29 09:53:48;;;;;;;;;;;15.20;59.30;;;;;;5104389;28;19937;-35
2023/11/29 09:56:14;;;;;;;;;;;15.10;59.30;;;;;;5104539;28;19912;-34
2023/11/29 09:58:40;;;;;;;;;;;15.10;59.40;;;;;;5094317;28;19916;-33
2023/11/29 10:01:06;;;;;;;;;;;15.10;59.30;;;;;;5100097;28;20383;-33
2023/11/29 10:03:32;;;;;;;;;;;15.30;59.50;;;;;;5102859;28;19912;-34
2023/11/29 10:05:58;;;;;;;;;;;15.30;59.40;;;;;;5103695;28;19908;-34
2023/11/29 10:08:24;;;;;;;;;;;15.30;59.20;;;;;;5104259;28;19912;-34
2023/11/29 10:10:52;;;;;;;;;;;15.20;59.20;;;;;;5102800;28;20591;-33
2023/11/29 10:13:20;;;;;;;;;;;15.10;59.20;;;;;;5099968;28;19912;-33
2023/11/29 10:15:46;;;;;;;;;;;15.10;59.30;;;;;;5104121;28;19919;-34
2023/11/29 10:18:12;;;;;;;;;;;15.10;59.30;;;;;;5104191;28;19924;-34
2023/11/29 10:20:38;;;;;;;;;;;15.20;59.30;;;;;;5103444;28;19911;-34
2023/11/29 10:23:04;;;;;;;;;;;15.30;59.20;;;;;;5105327;28;19975;-34
2023/11/29 10:25:32;;;;;;;;;;;15.30;59.10;;;;;;5103510;28;19915;-34
2023/11/29 10:27:58;;;;;;;;;;;15.20;59.10;;;;;;5097303;28;19911;-34
2023/11/29 10:30:24;;;;;;;;;;;15.20;59.20;;;;;;5103313;28;19922;-34
2023/11/29 10:32:50;;;;;;;;;;;15.10;59.30;;;;;;5107454;28;19908;-34
2023/11/29 10:35:17;;;;;;;;;;;15.10;59.30;;;;;;5101590;28;19912;-34
2023/11/29 10:37:44;;;;;;;;;;;15.10;59.30;;;;;;5103569;28;19916;-35
2023/11/29 10:40:11;;;;;;;;;;;15.30;59.30;;;;;;5104081;28;20307;-34
2023/11/29 10:42:41;;;;;;;;;;;15.40;59.20;;;;;;5103070;28;19919;-34
2023/11/29 10:45:07;;;;;;;;;;;15.30;59.10;;;;;;5103954;28;20018;-34
2023/11/29 10:47:36;;;;;;;;;;;15.20;59.10;;;;;;5070989;28;19920;-35
2023/11/29 10:50:03;;;;;;;;;;;15.20;59.20;;;;;;5103318;28;19908;-35
2023/11/29 10:52:29;;;;;;;;;;;15.10;59.30;;;;;;5102756;28;19954;-34
2023/11/29 10:54:55;;;;;;;;;;;15.10;59.10;;;;;;5102213;28;19908;-35
2023/11/29 10:57:25;;;;;;;;;;;15.20;59.30;;;;;;5103308;28;19920;-34
2023/11/29 11:00:15;;;;;;;;;;;15.30;59.20;;;;;;5097341;28;20425;-35
2023/11/29 11:02:47;;;;;;;;;;;15.30;59.20;;;;;;5073201;28;19968;-34
2023/11/29 11:05:15;;;;;;;;;;;15.30;59.10;;;;;;5101508;28;19916;-34
2023/11/29 11:07:45;;;;;;;;;;;15.20;59.10;;;;;;5077928;28;19918;-34
2023/11/29 11:10:11;;;;;;;;;;;15.10;59.20;;;;;;5103479;28;19908;-34
2023/11/29 11:12:37;;;;;;;;;;;15.10;59.20;;;;;;5102960;28;19932;-34
2023/11/29 11:15:07;;;;;;;;;;;15.10;59.20;;;;;;5105678;28;20372;-34
2023/11/29 11:17:34;;;;;;;;;;;15.30;59.30;;;;;;5075217;28;19979;-34
2023/11/29 11:20:04;;;;;;;;;;;15.30;59.20;;;;;;5077274;28;20127;-35
2023/11/29 11:22:31;;;;;;;;;;;15.30;59.00;;;;;;5098704;28;19967;-35
2023/11/29 11:25:07;;;;;;;;;;;15.20;59.00;;;;;;5100502;28;19935;-35
2023/11/29 11:27:34;;;;;;;;;;;15.10;59.00;;;;;;5099638;28;19980;-34
2023/11/29 11:30:04;;;;;;;;;;;15.10;59.20;;;;;;5106599;28;19929;-35
2023/11/29 11:32:44;;;;;;;;;;;15.10;59.20;;;;;;5107595;28;19916;-34
2023/11/29 11:35:33;;;;;;;;;;;15.20;59.20;;;;;;5097661;28;19909;-34
2023/11/29 11:38:09;;;;;;;;;;;15.30;59.10;;;;;;5095584;28;19916;-34
2023/11/29 11:40:35;;;;;;;;;;;15.30;59.10;;;;;;5108277;28;19927;-34
2023/11/29 11:43:01;;;;;;;;;;;15.30;59.00;;;;;;5106747;28;20685;-35
2023/11/29 11:45:29;;;;;;;;;;;15.20;59.00;;;;;;5106348;28;19946;-33
2023/11/29 11:47:55;;;;;;;;;;;15.10;59.10;;;;;;5122723;27;19912;-33
2023/11/29 11:50:20;;;;;;;;;;;15.10;59.10;;;;;;5106498;28;19915;-33
2023/11/29 11:52:46;;;;;;;;;;;15.10;59.20;;;;;;5106726;28;19951;-34
2023/11/29 11:55:17;;;;;;;;;;;15.20;59.20;;;;;;5107171;28;20367;-35
2023/11/29 11:57:44;;;;;;;;;;;15.30;59.10;;;;;;5106202;28;19955;-35
2023/11/29 12:00:10;;;;;;;;;;;15.30;59.00;;;;;;5122439;28;20002;-35
2023/11/29 12:02:36;;;;;;;;;;;15.30;58.90;;;;;;5105326;28;19993;-35
2023/11/29 12:05:05;;;;;;;;;;;15.20;58.90;;;;;;5106404;28;20061;-34
2023/11/29 12:07:30;;;;;;;;;;;15.10;59.00;;;;;;5105364;28;19912;-34
2023/11/29 12:09:56;;;;;;;;;;;15.10;59.00;;;;;;5106514;28;19950;-34
2023/11/29 12:12:23;;;;;;;;;;;15.10;59.00;;;;;;5105086;28;19908;-34
2023/11/29 12:14:53;;;;;;;;;;;15.10;59.10;;;;;;5106637;28;19933;-35
2023/11/29 12:17:19;;;;;;;;;;;15.30;59.10;;;;;;5105669;28;19939;-35
2023/11/29 12:19:49;;;;;;;;;;;15.30;59.00;;;;;;5106395;28;20296;-35
2023/11/29 12:22:15;;;;;;;;;;;15.20;58.90;;;;;;5099413;28;19961;-35
2023/11/29 12:24:45;;;;;;;;;;;15.20;58.90;;;;;;5105278;28;19909;-34
2023/11/29 12:27:16;;;;;;;;;;;15.10;59.00;;;;;;5105322;28;19908;-34
2023/11/29 12:29:43;;;;;;;;;;;15.00;59.00;;;;;;5105920;28;19916;-35
2023/11/29 12:32:10;;;;;;;;;;;15.10;59.10;;;;;;5107131;28;19916;-34
2023/11/29 12:34:36;;;;;;;;;;;15.10;59.10;;;;;;5112955;28;19911;-39
2023/11/29 12:37:03;;;;;;;;;;;15.30;59.10;;;;;;5105636;28;20030;-35
2023/11/29 12:39:35;;;;;;;;;;;15.30;59.00;;;;;;5121640;27;19908;-35
2023/11/29 12:42:04;;;;;;;;;;;15.20;58.90;;;;;;5106250;28;19912;-34
2023/11/29 12:44:30;;;;;;;;;;;15.10;58.90;;;;;;5106120;28;19919;-35
2023/11/29 12:46:56;;;;;;;;;;;15.10;59.00;;;;;;5104552;28;19919;-34
2023/11/29 12:49:22;;;;;;;;;;;15.10;59.00;;;;;;5105533;28;19908;-34
2023/11/29 12:51:48;;;;;;;;;;;15.20;59.00;;;;;;5105328;28;20002;-34
2023/11/29 12:54:14;;;;;;;;;;;15.30;59.00;;;;;;5105517;28;19915;-34
2023/11/29 12:56:40;;;;;;;;;;;15.30;58.90;;;;;;5104646;28;19918;-34
2023/11/29 12:59:06;;;;;;;;;;;15.30;58.80;;;;;;5105847;28;19992;-34
2023/11/29 13:01:34;;;;;;;;;;;15.20;58.80;;;;;;5104608;28;19919;-35
2023/11/29 13:04:00;;;;;;;;;;;15.10;58.90;;;;;;5112354;28;19934;-34
2023/11/29 13:06:26;;;;;;;;;;;15.10;59.00;;;;;;5098777;28;19912;-33
2023/11/29 13:08:52;;;;;;;;;;;15.10;59.00;;;;;;5105465;28;20371;-35
2023/11/29 13:11:18;;;;;;;;;;;15.20;59.10;;;;;;5105457;28;19911;-34
2023/11/29 13:13:44;;;;;;;;;;;15.30;59.00;;;;;;5104557;28;19908;-35
2023/11/29 13:16:13;;;;;;;;;;;15.30;58.90;;;;;;5071003;28;19911;-35
2023/11/29 13:18:38;;;;;;;;;;;15.30;58.70;;;;;;5104650;28;20483;-34
2023/11/29 13:21:05;;;;;;;;;;;15.20;58.80;;;;;;5105130;28;19911;-35
2023/11/29 13:23:31;;;;;;;;;;;15.10;58.90;;;;;;5104505;28;19944;-35
2023/11/29 13:25:57;;;;;;;;;;;15.10;59.00;;;;;;5087791;28;19912;-34
2023/11/29 13:28:22;;;;;;;;;;;15.10;59.00;;;;;;5104785;28;19929;-34
2023/11/29 13:30:49;;;;;;;;;;;15.30;59.00;;;;;;5105437;28;19920;-34
2023/11/29 13:33:15;;;;;;;;;;;15.40;58.90;;;;;;5111592;28;19916;-35
2023/11/29 13:35:41;;;;;;;;;;;15.30;58.70;;;;;;5101687;28;19908;-34
2023/11/29 13:38:06;;;;;;;;;;;15.20;58.70;;;;;;5105515;28;19919;-34
2023/11/29 13:40:32;;;;;;;;;;;15.10;58.80;;;;;;5104665;28;19908;-34
2023/11/29 13:42:58;;;;;;;;;;;15.10;59.00;;;;;;5104502;28;20380;-34
2023/11/29 13:45:24;;;;;;;;;;;15.10;58.90;;;;;;5103944;28;19942;-34
2023/11/29 13:47:50;;;;;;;;;;;15.10;58.90;;;;;;5104426;28;19908;-34
2023/11/29 13:50:16;;;;;;;;;;;15.30;59.00;;;;;;5097137;28;19911;-34
2023/11/29 13:52:42;;;;;;;;;;;15.30;58.90;;;;;;5104135;28;19915;-34
2023/11/29 13:55:08;;;;;;;;;;;15.30;58.80;;;;;;5103954;28;19908;-34
2023/11/29 13:57:35;;;;;;;;;;;15.20;58.70;;;;;;5103998;28;19972;-34
2023/11/29 14:00:00;;;;;;;;;;;15.10;58.80;;;;;;5104567;28;19912;-34
2023/11/29 14:02:27;;;;;;;;;;;15.10;58.80;;;;;;5103940;28;19926;-34
2023/11/29 14:04:53;;;;;;;;;;;15.10;58.80;;;;;;5108502;28;19930;-34
2023/11/29 14:07:21;;;;;;;;;;;15.30;58.90;;;;;;5101043;28;19912;-34
2023/11/29 14:09:46;;;;;;;;;;;15.40;58.90;;;;;;5104494;28;19990;-34
2023/11/29 14:12:12;;;;;;;;;;;15.30;58.70;;;;;;5099665;28;19969;-34